Terminal Aerodrome Forecast
Issued by NWS

Home | Current Version | Previous Version | Text Only | Print | Product List | Glossary On
Versions: 1 2 3 4 5 6 7 8 9 10 11 12 13 14 15 16 17 18 19
000
FTUS43 KDVN 061900 AAA
TAFBRL
TAF AMD
KBRL 061958Z 0620/0718 23012KT P6SM SKC
     FM070500 23007KT P6SM BKN150
     FM071600 27008KT P6SM SCT100=

USA.gov is the U.S. government's official web portal to all federal, state and local government web resources and services.